Arcadia, Texas
Current Conditions -  °F | °C
As of 6:53 AM on Sunday 23 Nov 2014 (Local Time) from KLVJ Reporting Station
Scattered Clouds Scattered Clouds  
Wind Chill: 60°   Ceiling: Unl
Heat Index: 60°   Visibility: 10mi
Dew Point: 58°   Wind: 5mph
Humidity: 93%   Direction: NA
Pressure: 29.68"   Gusts: NA
Location:  29.3723°N, 95.1328°W
Report Text: KLVJ 231253Z AUTO VRB04KT 10SM SCT009 16/14 A2968 RMK AO2 SLP049 T01560144
Loading
Personal Weather Stations






























Interactive Weather Map New forecast layout! Learn more

10-Day Weather Forecast

Advertisements
Track Severe Weather on mobile